Terminal Aerodrome Forecast
Issued by NWS

Home | Current Version | Previous Version | Text Only | Print | Product List | Glossary On
Versions: 1 2 3 4 5 6 7 8 9 10 11 12 13 14 15 16 17 18 19 20
000
FTUS46 KMFR 251700 RRA
TAFRBG
TAF
KRBG 251758Z 2518/2618 18010KT P6SM -RA BKN060 BKN080 WS020/19055KT
     FM251900 18025G35KT P6SM RA BKN050
     FM252200 22020G32KT P6SM -RA BKN035
     FM260100 24012KT P6SM -SHRA OVC025=

USA.gov is the U.S. government's official web portal to all federal, state and local government web resources and services.